sensor_id;sensor_type;location;lat;lon;timestamp;pressure;altitude;pressure_sealevel;temperature;humidity
21742;BME280;11033;47.490;11.116;2023-03-13T00:03:41;92949.25;;;1.97;95.27
21742;BME280;11033;47.490;11.116;2023-03-13T00:06:06;92961.16;;;1.89;95.78
21742;BME280;11033;47.490;11.116;2023-03-13T00:08:31;92944.22;;;1.85;96.23
21742;BME280;11033;47.490;11.116;2023-03-13T00:10:57;92940.66;;;1.86;95.83
21742;BME280;11033;47.490;11.116;2023-03-13T00:13:22;92945.72;;;1.88;95.30
21742;BME280;11033;47.490;11.116;2023-03-13T00:15:47;92939.03;;;1.85;96.17
21742;BME280;11033;47.490;11.116;2023-03-13T00:18:13;92927.31;;;1.81;95.59
21742;BME280;11033;47.490;11.116;2023-03-13T00:20:38;92922.09;;;1.81;96.13
21742;BME280;11033;47.490;11.116;2023-03-13T00:23:04;92919.66;;;1.80;96.20
21742;BME280;11033;47.490;11.116;2023-03-13T00:25:30;92915.56;;;1.77;95.92
21742;BME280;11033;47.490;11.116;2023-03-13T00:27:55;92917.97;;;1.88;96.97
21742;BME280;11033;47.490;11.116;2023-03-13T00:30:21;92904.38;;;1.77;96.97
21742;BME280;11033;47.490;11.116;2023-03-13T00:32:47;92895.63;;;1.78;96.92
21742;BME280;11033;47.490;11.116;2023-03-13T00:35:13;92889.59;;;1.77;96.25
21742;BME280;11033;47.490;11.116;2023-03-13T00:37:39;92881.16;;;1.75;96.83
21742;BME280;11033;47.490;11.116;2023-03-13T00:40:05;92877.78;;;1.92;97.05
21742;BME280;11033;47.490;11.116;2023-03-13T00:42:31;92864.69;;;1.84;97.64
21742;BME280;11033;47.490;11.116;2023-03-13T00:44:56;92857.06;;;1.83;97.08
21742;BME280;11033;47.490;11.116;2023-03-13T00:47:21;92864.41;;;1.87;98.39
21742;BME280;11033;47.490;11.116;2023-03-13T00:49:47;92859.19;;;1.97;98.32
21742;BME280;11033;47.490;11.116;2023-03-13T00:52:12;92844.44;;;1.98;97.06
21742;BME280;11033;47.490;11.116;2023-03-13T00:54:37;92849.63;;;1.98;97.38
21742;BME280;11033;47.490;11.116;2023-03-13T00:57:03;92852.31;;;2.06;97.65
21742;BME280;11033;47.490;11.116;2023-03-13T00:59:28;92854.41;;;2.20;97.74
21742;BME280;11033;47.490;11.116;2023-03-13T01:01:53;92854.03;;;2.15;97.33
21742;BME280;11033;47.490;11.116;2023-03-13T01:04:19;92847.84;;;2.16;97.12
21742;BME280;11033;47.490;11.116;2023-03-13T01:06:44;92863.81;;;2.21;97.01
21742;BME280;11033;47.490;11.116;2023-03-13T01:09:12;92842.38;;;2.19;97.23
21742;BME280;11033;47.490;11.116;2023-03-13T01:11:39;92843.72;;;2.23;97.13
21742;BME280;11033;47.490;11.116;2023-03-13T01:14:08;92841.78;;;2.25;95.66
21742;BME280;11033;47.490;11.116;2023-03-13T01:16:35;92836.22;;;2.20;95.87
21742;BME280;11033;47.490;11.116;2023-03-13T01:19:04;92837.16;;;2.19;94.76
21742;BME280;11033;47.490;11.116;2023-03-13T01:21:30;92830.34;;;2.18;96.09
21742;BME280;11033;47.490;11.116;2023-03-13T01:23:55;92829.38;;;2.19;95.31
21742;BME280;11033;47.490;11.116;2023-03-13T01:26:21;92829.00;;;2.14;95.31
21742;BME280;11033;47.490;11.116;2023-03-13T01:28:46;92826.56;;;2.12;95.56
21742;BME280;11033;47.490;11.116;2023-03-13T01:31:17;92816.97;;;2.13;95.22
21742;BME280;11033;47.490;11.116;2023-03-13T01:33:44;92825.66;;;2.21;94.89
21742;BME280;11033;47.490;11.116;2023-03-13T01:36:09;92817.66;;;2.15;94.92
21742;BME280;11033;47.490;11.116;2023-03-13T01:38:36;92813.13;;;2.17;94.54
21742;BME280;11033;47.490;11.116;2023-03-13T01:41:02;92806.81;;;2.19;94.81
21742;BME280;11033;47.490;11.116;2023-03-13T01:43:29;92810.22;;;2.20;94.25
21742;BME280;11033;47.490;11.116;2023-03-13T01:48:41;92813.41;;;2.14;95.11
21742;BME280;11033;47.490;11.116;2023-03-13T01:51:34;92787.50;;;2.22;95.02
21742;BME280;11033;47.490;11.116;2023-03-13T01:54:07;92799.47;;;2.15;95.81
21742;BME280;11033;47.490;11.116;2023-03-13T01:56:42;92801.09;;;2.16;95.39
21742;BME280;11033;47.490;11.116;2023-03-13T01:59:12;92796.13;;;2.22;95.52
21742;BME280;11033;47.490;11.116;2023-03-13T02:01:40;92796.28;;;2.21;94.69
21742;BME280;11033;47.490;11.116;2023-03-13T02:04:07;92792.41;;;2.25;94.36
21742;BME280;11033;47.490;11.116;2023-03-13T02:06:35;92790.63;;;2.26;94.39
21742;BME280;11033;47.490;11.116;2023-03-13T02:09:10;92793.69;;;2.21;94.03
21742;BME280;11033;47.490;11.116;2023-03-13T02:11:46;92781.66;;;2.20;93.96
21742;BME280;11033;47.490;11.116;2023-03-13T02:14:12;92780.31;;;2.16;94.58
21742;BME280;11033;47.490;11.116;2023-03-13T02:16:40;92788.56;;;2.29;94.21
21742;BME280;11033;47.490;11.116;2023-03-13T02:19:19;92789.53;;;2.28;94.07
21742;BME280;11033;47.490;11.116;2023-03-13T02:22:01;92788.19;;;2.24;93.79
21742;BME280;11033;47.490;11.116;2023-03-13T02:24:44;92784.63;;;2.25;93.11
21742;BME280;11033;47.490;11.116;2023-03-13T02:27:14;92793.09;;;2.27;93.72
21742;BME280;11033;47.490;11.116;2023-03-13T02:29:40;92792.78;;;2.30;92.56
21742;BME280;11033;47.490;11.116;2023-03-13T02:32:06;92785.44;;;2.26;93.07
21742;BME280;11033;47.490;11.116;2023-03-13T02:34:32;92782.38;;;2.30;93.04
21742;BME280;11033;47.490;11.116;2023-03-13T02:37:00;92782.16;;;2.23;93.48
21742;BME280;11033;47.490;11.116;2023-03-13T02:39:28;92769.34;;;2.22;93.01
21742;BME280;11033;47.490;11.116;2023-03-13T02:41:55;92773.25;;;2.26;93.02
21742;BME280;11033;47.490;11.116;2023-03-13T02:44:22;92777.19;;;2.30;92.98
21742;BME280;11033;47.490;11.116;2023-03-13T02:46:49;92768.72;;;2.28;93.16
21742;BME280;11033;47.490;11.116;2023-03-13T02:51:47;92777.56;;;2.35;92.84
21742;BME280;11033;47.490;11.116;2023-03-13T02:54:17;92777.19;;;2.30;93.21
21742;BME280;11033;47.490;11.116;2023-03-13T02:56:46;92777.56;;;2.35;92.83
21742;BME280;11033;47.490;11.116;2023-03-13T02:59:13;92774.66;;;2.38;92.34
21742;BME280;11033;47.490;11.116;2023-03-13T03:01:38;92775.94;;;2.34;93.87
21742;BME280;11033;47.490;11.116;2023-03-13T03:04:03;92778.75;;;2.41;92.47
21742;BME280;11033;47.490;11.116;2023-03-13T03:06:29;92772.00;;;2.30;93.12
21742;BME280;11033;47.490;11.116;2023-03-13T03:08:54;92781.41;;;2.31;92.82
21742;BME280;11033;47.490;11.116;2023-03-13T03:11:19;92777.19;;;2.30;93.37
21742;BME280;11033;47.490;11.116;2023-03-13T03:13:45;92767.09;;;2.27;93.55
21742;BME280;11033;47.490;11.116;2023-03-13T03:16:12;92772.59;;;2.24;94.00
21742;BME280;11033;47.490;11.116;2023-03-13T03:18:39;92772.50;;;2.34;93.67
21742;BME280;11033;47.490;11.116;2023-03-13T03:21:05;92767.81;;;2.37;93.32
21742;BME280;11033;47.490;11.116;2023-03-13T03:23:33;92775.94;;;2.34;93.10
21742;BME280;11033;47.490;11.116;2023-03-13T03:25:59;92777.78;;;2.42;93.77
21742;BME280;11033;47.490;11.116;2023-03-13T03:28:25;92774.66;;;2.38;94.25
21742;BME280;11033;47.490;11.116;2023-03-13T03:30:50;92778.59;;;2.42;92.81
21742;BME280;11033;47.490;11.116;2023-03-13T03:33:18;92788.00;;;2.43;93.02
21742;BME280;11033;47.490;11.116;2023-03-13T03:35:43;92786.91;;;2.46;92.76
21742;BME280;11033;47.490;11.116;2023-03-13T03:38:09;92783.84;;;2.50;92.42
21742;BME280;11033;47.490;11.116;2023-03-13T03:40:35;92779.97;;;2.54;92.29
21742;BME280;11033;47.490;11.116;2023-03-13T03:43:00;92787.09;;;2.52;92.54
21742;BME280;11033;47.490;11.116;2023-03-13T03:45:25;92783.78;;;2.60;93.32
21742;BME280;11033;47.490;11.116;2023-03-13T03:47:51;92785.94;;;2.65;92.27
21742;BME280;11033;47.490;11.116;2023-03-13T03:50:16;92787.88;;;2.63;91.88
21742;BME280;11033;47.490;11.116;2023-03-13T03:52:41;92787.31;;;2.59;92.51
21742;BME280;11033;47.490;11.116;2023-03-13T03:55:07;92787.19;;;2.61;92.37
21742;BME280;11033;47.490;11.116;2023-03-13T03:57:32;92792.75;;;2.66;92.12
21742;BME280;11033;47.490;11.116;2023-03-13T03:59:57;92781.69;;;2.64;93.52
21742;BME280;11033;47.490;11.116;2023-03-13T04:02:23;92769.50;;;2.64;92.76
21742;BME280;11033;47.490;11.116;2023-03-13T04:04:48;92766.75;;;2.66;92.93
21742;BME280;11033;47.490;11.116;2023-03-13T04:07:13;92769.06;;;2.69;92.77
21742;BME280;11033;47.490;11.116;2023-03-13T04:09:39;92765.50;;;2.70;93.24
21742;BME280;11033;47.490;11.116;2023-03-13T04:12:04;92769.72;;;2.71;92.46
21742;BME280;11033;47.490;11.116;2023-03-13T04:14:29;92759.84;;;2.74;92.81
21742;BME280;11033;47.490;11.116;2023-03-13T04:16:55;92764.88;;;2.76;92.04
21742;BME280;11033;47.490;11.116;2023-03-13T04:19:20;92755.44;;;2.75;92.00
21742;BME280;11033;47.490;11.116;2023-03-13T04:21:45;92763.09;;;2.76;92.08
21742;BME280;11033;47.490;11.116;2023-03-13T04:24:11;92757.47;;;2.89;91.35
21742;BME280;11033;47.490;11.116;2023-03-13T04:26:36;92757.84;;;2.94;90.68
21742;BME280;11033;47.490;11.116;2023-03-13T04:29:01;92757.16;;;2.92;90.87
21742;BME280;11033;47.490;11.116;2023-03-13T04:31:26;92746.78;;;2.92;91.72
21742;BME280;11033;47.490;11.116;2023-03-13T04:33:52;92752.94;;;2.91;92.10
21742;BME280;11033;47.490;11.116;2023-03-13T04:36:17;92745.50;;;2.96;91.63
21742;BME280;11033;47.490;11.116;2023-03-13T04:38:42;92744.53;;;2.97;91.10
21742;BME280;11033;47.490;11.116;2023-03-13T04:41:07;92750.38;;;2.99;91.42
21742;BME280;11033;47.490;11.116;2023-03-13T04:43:33;92747.78;;;2.99;91.64
21742;BME280;11033;47.490;11.116;2023-03-13T04:45:58;92742.28;;;3.02;90.55
21742;BME280;11033;47.490;11.116;2023-03-13T04:48:23;92739.81;;;3.01;89.97
21742;BME280;11033;47.490;11.116;2023-03-13T04:50:48;92754.31;;;3.03;89.70
21742;BME280;11033;47.490;11.116;2023-03-13T04:53:14;92750.06;;;3.02;90.46
21742;BME280;11033;47.490;11.116;2023-03-13T04:55:39;92749.09;;;3.03;90.10
21742;BME280;11033;47.490;11.116;2023-03-13T04:58:05;92747.78;;;2.99;90.81
21742;BME280;11033;47.490;11.116;2023-03-13T05:00:30;92743.91;;;3.03;90.35
21742;BME280;11033;47.490;11.116;2023-03-13T05:02:55;92718.69;;;3.04;90.46
21742;BME280;11033;47.490;11.116;2023-03-13T05:05:21;92710.44;;;3.08;89.61
21742;BME280;11033;47.490;11.116;2023-03-13T05:07:46;92713.34;;;3.05;89.61
21742;BME280;11033;47.490;11.116;2023-03-13T05:10:11;92706.69;;;3.11;89.61
21742;BME280;11033;47.490;11.116;2023-03-13T05:12:37;92708.13;;;3.05;89.22
21742;BME280;11033;47.490;11.116;2023-03-13T05:15:02;92708.47;;;3.10;89.58
21742;BME280;11033;47.490;11.116;2023-03-13T05:17:28;92707.03;;;3.16;88.90
21742;BME280;11033;47.490;11.116;2023-03-13T05:19:53;92705.72;;;3.12;88.52
21742;BME280;11033;47.490;11.116;2023-03-13T05:22:18;92710.13;;;3.11;88.95
21742;BME280;11033;47.490;11.116;2023-03-13T05:24:44;92703.13;;;3.12;88.90
21742;BME280;11033;47.490;11.116;2023-03-13T05:27:09;92692.72;;;3.12;88.79
21742;BME280;11033;47.490;11.116;2023-03-13T05:29:34;92692.75;;;3.20;89.03
21742;BME280;11033;47.490;11.116;2023-03-13T05:31:59;92694.59;;;3.28;87.91
21742;BME280;11033;47.490;11.116;2023-03-13T05:34:25;92694.22;;;3.23;87.90
21742;BME280;11033;47.490;11.116;2023-03-13T05:36:50;92682.81;;;3.15;88.39
21742;BME280;11033;47.490;11.116;2023-03-13T05:39:15;92683.81;;;3.23;88.47
21742;BME280;11033;47.490;11.116;2023-03-13T05:41:40;92680.56;;;3.21;88.69
21742;BME280;11033;47.490;11.116;2023-03-13T05:44:06;92694.38;;;3.21;88.46
21742;BME280;11033;47.490;11.116;2023-03-13T05:46:31;92688.50;;;3.19;88.55
21742;BME280;11033;47.490;11.116;2023-03-13T05:48:57;92683.78;;;3.14;88.91
21742;BME280;11033;47.490;11.116;2023-03-13T05:51:23;92701.38;;;3.21;88.77
21742;BME280;11033;47.490;11.116;2023-03-13T05:53:48;92702.34;;;3.19;88.87
21742;BME280;11033;47.490;11.116;2023-03-13T05:56:13;92695.19;;;3.22;89.13
21742;BME280;11033;47.490;11.116;2023-03-13T05:58:39;92683.97;;;3.21;88.79
21742;BME280;11033;47.490;11.116;2023-03-13T06:01:09;92682.03;;;3.23;88.98
21742;BME280;11033;47.490;11.116;2023-03-13T06:03:35;92686.72;;;3.19;88.57
21742;BME280;11033;47.490;11.116;2023-03-13T06:06:00;92672.75;;;3.21;89.39
21742;BME280;11033;47.490;11.116;2023-03-13T06:08:25;92664.84;;;3.30;89.26
21742;BME280;11033;47.490;11.116;2023-03-13T06:10:52;92665.66;;;3.31;88.56
21742;BME280;11033;47.490;11.116;2023-03-13T06:13:17;92675.09;;;3.32;88.31
21742;BME280;11033;47.490;11.116;2023-03-13T06:15:42;92679.63;;;3.30;88.21
21742;BME280;11033;47.490;11.116;2023-03-13T06:18:08;92673.63;;;3.29;88.25
21742;BME280;11033;47.490;11.116;2023-03-13T06:20:33;92677.38;;;3.43;87.86
21742;BME280;11033;47.490;11.116;2023-03-13T06:22:58;92671.53;;;3.41;88.04
21742;BME280;11033;47.490;11.116;2023-03-13T06:25:23;92668.59;;;3.44;88.08
21742;BME280;11033;47.490;11.116;2023-03-13T06:27:49;92678.38;;;3.50;88.21
21742;BME280;11033;47.490;11.116;2023-03-13T06:30:15;92678.06;;;3.53;87.83
21742;BME280;11033;47.490;11.116;2023-03-13T06:32:40;92672.19;;;3.51;88.09
21742;BME280;11033;47.490;11.116;2023-03-13T06:35:06;92647.47;;;3.55;87.90
21742;BME280;11033;47.490;11.116;2023-03-13T06:37:31;92648.78;;;3.59;87.27
21742;BME280;11033;47.490;11.116;2023-03-13T06:39:57;92658.88;;;3.70;86.83
21742;BME280;11033;47.490;11.116;2023-03-13T06:42:23;92651.06;;;3.78;85.98
21742;BME280;11033;47.490;11.116;2023-03-13T06:44:48;92656.63;;;3.75;86.26
21742;BME280;11033;47.490;11.116;2023-03-13T06:47:13;92660.34;;;3.81;85.86
21742;BME280;11033;47.490;11.116;2023-03-13T06:49:38;92664.44;;;3.83;86.19
21742;BME280;11033;47.490;11.116;2023-03-13T06:52:04;92662.69;;;3.92;85.07
21742;BME280;11033;47.490;11.116;2023-03-13T06:54:29;92670.66;;;3.99;84.50
21742;BME280;11033;47.490;11.116;2023-03-13T06:56:54;92660.88;;;4.01;84.67
21742;BME280;11033;47.490;11.116;2023-03-13T06:59:20;92648.34;;;4.04;84.92
21742;BME280;11033;47.490;11.116;2023-03-13T07:01:45;92643.94;;;4.13;84.67
21742;BME280;11033;47.490;11.116;2023-03-13T07:04:13;92652.91;;;4.19;84.48
21742;BME280;11033;47.490;11.116;2023-03-13T07:06:40;92650.94;;;4.21;83.40
21742;BME280;11033;47.490;11.116;2023-03-13T07:09:05;92649.31;;;4.28;83.61
21742;BME280;11033;47.490;11.116;2023-03-13T07:11:30;92657.94;;;4.28;85.13
21742;BME280;11033;47.490;11.116;2023-03-13T07:13:56;92654.03;;;4.32;86.17
21742;BME280;11033;47.490;11.116;2023-03-13T07:16:21;92657.28;;;4.34;86.34
21742;BME280;11033;47.490;11.116;2023-03-13T07:18:47;92652.22;;;4.41;86.41
21742;BME280;11033;47.490;11.116;2023-03-13T07:21:12;92645.34;;;4.48;86.15
21742;BME280;11033;47.490;11.116;2023-03-13T07:23:38;92647.63;;;4.51;86.44
21742;BME280;11033;47.490;11.116;2023-03-13T07:26:10;92643.88;;;4.54;86.72
21742;BME280;11033;47.490;11.116;2023-03-13T07:28:36;92651.69;;;4.54;84.82
21742;BME280;11033;47.490;11.116;2023-03-13T07:31:06;92653.81;;;4.66;83.03
21742;BME280;11033;47.490;11.116;2023-03-13T07:33:32;92641.25;;;4.70;84.16
21742;BME280;11033;47.490;11.116;2023-03-13T07:35:57;92645.97;;;4.74;84.69
21742;BME280;11033;47.490;11.116;2023-03-13T07:38:23;92639.94;;;4.74;85.42
21742;BME280;11033;47.490;11.116;2023-03-13T07:40:53;92647.44;;;4.77;85.24
21742;BME280;11033;47.490;11.116;2023-03-13T07:43:19;92644.47;;;4.88;83.62
21742;BME280;11033;47.490;11.116;2023-03-13T07:45:51;92641.50;;;4.91;84.79
21742;BME280;11033;47.490;11.116;2023-03-13T07:48:17;92640.19;;;4.95;85.19
21742;BME280;11033;47.490;11.116;2023-03-13T07:50:43;92644.41;;;5.04;84.89
21742;BME280;11033;47.490;11.116;2023-03-13T07:53:08;92645.00;;;5.15;84.80
21742;BME280;11033;47.490;11.116;2023-03-13T07:55:33;92635.84;;;5.19;84.12
21742;BME280;11033;47.490;11.116;2023-03-13T07:57:59;92630.31;;;5.22;84.84
21742;BME280;11033;47.490;11.116;2023-03-13T08:00:24;92617.56;;;5.27;84.88
21742;BME280;11033;47.490;11.116;2023-03-13T08:02:49;92618.63;;;5.40;85.10
21742;BME280;11033;47.490;11.116;2023-03-13T08:05:14;92610.75;;;5.49;84.74
21742;BME280;11033;47.490;11.116;2023-03-13T08:07:40;92608.44;;;5.54;84.99
21742;BME280;11033;47.490;11.116;2023-03-13T08:10:07;92601.34;;;5.62;84.76
21742;BME280;11033;47.490;11.116;2023-03-13T08:12:33;92596.69;;;5.72;84.93
21742;BME280;11033;47.490;11.116;2023-03-13T08:14:58;92588.31;;;5.85;84.84
21742;BME280;11033;47.490;11.116;2023-03-13T08:17:23;92587.28;;;5.94;83.85
21742;BME280;11033;47.490;11.116;2023-03-13T08:19:49;92583.84;;;5.94;83.56
21742;BME280;11033;47.490;11.116;2023-03-13T08:22:14;92587.84;;;6.04;83.57
21742;BME280;11033;47.490;11.116;2023-03-13T08:24:39;92584.53;;;6.11;83.10
21742;BME280;11033;47.490;11.116;2023-03-13T08:27:04;92574.16;;;6.17;83.04
21742;BME280;11033;47.490;11.116;2023-03-13T08:29:30;92593.66;;;6.29;82.04
21742;BME280;11033;47.490;11.116;2023-03-13T08:31:55;92600.97;;;6.34;83.55
21742;BME280;11033;47.490;11.116;2023-03-13T08:34:21;92610.00;;;6.31;80.79
21742;BME280;11033;47.490;11.116;2023-03-13T08:36:46;92581.22;;;6.31;81.58
21742;BME280;11033;47.490;11.116;2023-03-13T08:39:16;92572.13;;;6.42;82.04
21742;BME280;11033;47.490;11.116;2023-03-13T08:41:42;92572.22;;;6.49;82.87
21742;BME280;11033;47.490;11.116;2023-03-13T08:44:10;92572.06;;;6.50;83.57
21742;BME280;11033;47.490;11.116;2023-03-13T08:46:36;92579.66;;;6.60;82.40
21742;BME280;11033;47.490;11.116;2023-03-13T08:49:03;92580.91;;;6.64;81.91
21742;BME280;11033;47.490;11.116;2023-03-13T08:51:28;92572.88;;;6.65;82.39
21742;BME280;11033;47.490;11.116;2023-03-13T08:53:54;92574.59;;;6.73;82.69
21742;BME280;11033;47.490;11.116;2023-03-13T08:56:22;92586.94;;;6.79;81.03
21742;BME280;11033;47.490;11.116;2023-03-13T08:58:49;92584.88;;;6.89;80.14
21742;BME280;11033;47.490;11.116;2023-03-13T09:01:15;92587.31;;;6.91;77.03
21742;BME280;11033;47.490;11.116;2023-03-13T09:03:41;92589.00;;;6.98;76.14
21742;BME280;11033;47.490;11.116;2023-03-13T09:06:07;92586.22;;;7.00;77.94
21742;BME280;11033;47.490;11.116;2023-03-13T09:08:32;92579.78;;;7.03;78.25
21742;BME280;11033;47.490;11.116;2023-03-13T09:11:09;92563.34;;;7.09;79.15
21742;BME280;11033;47.490;11.116;2023-03-13T09:13:38;92548.72;;;7.14;79.26
21742;BME280;11033;47.490;11.116;2023-03-13T09:16:06;92543.56;;;7.21;78.75
21742;BME280;11033;47.490;11.116;2023-03-13T09:18:32;92539.03;;;7.29;76.67
21742;BME280;11033;47.490;11.116;2023-03-13T09:20:58;92544.34;;;7.36;78.43
21742;BME280;11033;47.490;11.116;2023-03-13T09:23:24;92533.13;;;7.42;78.38
21742;BME280;11033;47.490;11.116;2023-03-13T09:25:55;92537.13;;;7.59;75.33
21742;BME280;11033;47.490;11.116;2023-03-13T09:28:21;92545.34;;;7.78;73.00
21742;BME280;11033;47.490;11.116;2023-03-13T09:30:47;92531.16;;;7.87;73.83
21742;BME280;11033;47.490;11.116;2023-03-13T09:33:14;92530.88;;;8.03;70.56
21742;BME280;11033;47.490;11.116;2023-03-13T09:35:40;92528.59;;;8.21;68.87
21742;BME280;11033;47.490;11.116;2023-03-13T09:38:05;92518.94;;;8.28;70.34
21742;BME280;11033;47.490;11.116;2023-03-13T09:40:36;92494.22;;;8.38;71.99
21742;BME280;11033;47.490;11.116;2023-03-13T09:43:02;92488.97;;;8.72;70.68
21742;BME280;11033;47.490;11.116;2023-03-13T09:45:31;92488.28;;;9.05;68.48
21742;BME280;11033;47.490;11.116;2023-03-13T09:48:44;92483.94;;;9.25;68.07
21742;BME280;11033;47.490;11.116;2023-03-13T09:51:02;92481.97;;;9.53;69.23
21742;BME280;11033;47.490;11.116;2023-03-13T09:56:13;92451.66;;;10.04;62.43
21742;BME280;11033;47.490;11.116;2023-03-13T09:58:49;92447.19;;;10.31;62.45
21742;BME280;11033;47.490;11.116;2023-03-13T10:01:19;92459.91;;;10.54;60.73
21742;BME280;11033;47.490;11.116;2023-03-13T10:06:54;92466.00;;;11.12;58.75
21742;BME280;11033;47.490;11.116;2023-03-13T10:09:27;92469.25;;;11.14;60.80
21742;BME280;11033;47.490;11.116;2023-03-13T10:12:00;92448.25;;;11.32;60.77
21742;BME280;11033;47.490;11.116;2023-03-13T10:17:36;92446.06;;;11.92;58.50
21742;BME280;11033;47.490;11.116;2023-03-13T10:20:25;92430.31;;;12.29;57.74
21742;BME280;11033;47.490;11.116;2023-03-13T10:23:14;92435.38;;;12.55;60.37
21742;BME280;11033;47.490;11.116;2023-03-13T10:25:40;92427.16;;;12.63;63.49
21742;BME280;11033;47.490;11.116;2023-03-13T10:28:14;92433.28;;;12.94;53.24
21742;BME280;11033;47.490;11.116;2023-03-13T10:30:47;92438.91;;;13.04;55.32
21742;BME280;11033;47.490;11.116;2023-03-13T10:35:40;92430.53;;;13.25;58.54
21742;BME280;11033;47.490;11.116;2023-03-13T10:38:16;92417.06;;;13.57;54.96
21742;BME280;11033;47.490;11.116;2023-03-13T10:40:42;92414.72;;;13.79;57.66
21742;BME280;11033;47.490;11.116;2023-03-13T10:43:20;92416.00;;;14.00;57.28
21742;BME280;11033;47.490;11.116;2023-03-13T10:45:45;92403.47;;;14.07;59.37
21742;BME280;11033;47.490;11.116;2023-03-13T10:48:14;92418.94;;;14.33;58.91
21742;BME280;11033;47.490;11.116;2023-03-13T10:50:45;92409.03;;;14.40;56.33
21742;BME280;11033;47.490;11.116;2023-03-13T10:53:24;92413.88;;;14.32;55.72
21742;BME280;11033;47.490;11.116;2023-03-13T10:56:11;92407.41;;;14.74;59.36
21742;BME280;11033;47.490;11.116;2023-03-13T10:58:41;92402.13;;;15.14;59.05
21742;BME280;11033;47.490;11.116;2023-03-13T11:01:20;92400.91;;;15.34;56.20
21742;BME280;11033;47.490;11.116;2023-03-13T11:03:48;92389.03;;;15.53;56.64
21742;BME280;11033;47.490;11.116;2023-03-13T11:06:33;92380.94;;;16.05;58.05
21742;BME280;11033;47.490;11.116;2023-03-13T11:09:13;92352.00;;;16.42;57.64
21742;BME280;11033;47.490;11.116;2023-03-13T11:11:52;92348.81;;;16.78;56.60
21742;BME280;11033;47.490;11.116;2023-03-13T11:14:22;92331.63;;;17.35;56.15
21742;BME280;11033;47.490;11.116;2023-03-13T11:16:49;92332.94;;;17.86;55.52
21742;BME280;11033;47.490;11.116;2023-03-13T11:19:27;92318.50;;;18.98;53.59
21742;BME280;11033;47.490;11.116;2023-03-13T11:25:14;92309.00;;;19.43;46.87
21742;BME280;11033;47.490;11.116;2023-03-13T11:27:50;92308.28;;;19.93;48.50
21742;BME280;11033;47.490;11.116;2023-03-13T11:30:39;92300.00;;;20.15;42.03
21742;BME280;11033;47.490;11.116;2023-03-13T11:36:16;92300.84;;;21.26;40.79
21742;BME280;11033;47.490;11.116;2023-03-13T11:38:47;92298.31;;;21.45;43.80
21742;BME280;11033;47.490;11.116;2023-03-13T11:44:21;92281.88;;;22.35;43.79
21742;BME280;11033;47.490;11.116;2023-03-13T11:50:04;92266.25;;;22.66;43.73
21742;BME280;11033;47.490;11.116;2023-03-13T11:52:57;92257.94;;;23.15;39.47
21742;BME280;11033;47.490;11.116;2023-03-13T11:55:52;92247.22;;;23.53;38.42
21742;BME280;11033;47.490;11.116;2023-03-13T12:01:39;92236.59;;;23.80;36.23
21742;BME280;11033;47.490;11.116;2023-03-13T12:04:17;92222.47;;;24.40;40.02
21742;BME280;11033;47.490;11.116;2023-03-13T12:06:53;92206.72;;;24.60;34.79
21742;BME280;11033;47.490;11.116;2023-03-13T12:10:12;92198.16;;;25.13;40.23
21742;BME280;11033;47.490;11.116;2023-03-13T12:15:35;92178.69;;;24.61;39.47
21742;BME280;11033;47.490;11.116;2023-03-13T12:18:08;92179.09;;;24.96;36.97
21742;BME280;11033;47.490;11.116;2023-03-13T12:20:51;92185.38;;;24.91;38.80
21742;BME280;11033;47.490;11.116;2023-03-13T12:23:27;92176.00;;;24.48;38.69
21742;BME280;11033;47.490;11.116;2023-03-13T12:26:11;92176.72;;;24.81;40.73
21742;BME280;11033;47.490;11.116;2023-03-13T12:33:57;92165.81;;;24.86;40.58
21742;BME280;11033;47.490;11.116;2023-03-13T12:36:31;92161.13;;;25.05;38.54
21742;BME280;11033;47.490;11.116;2023-03-13T12:39:13;92163.63;;;24.60;39.44
21742;BME280;11033;47.490;11.116;2023-03-13T12:41:43;92156.53;;;24.64;37.67
21742;BME280;11033;47.490;11.116;2023-03-13T12:44:14;92159.44;;;23.62;37.06
21742;BME280;11033;47.490;11.116;2023-03-13T12:46:45;92163.31;;;23.56;39.39
21742;BME280;11033;47.490;11.116;2023-03-13T12:55:32;92153.47;;;23.27;38.11
21742;BME280;11033;47.490;11.116;2023-03-13T13:00:49;92142.84;;;22.80;38.68
21742;BME280;11033;47.490;11.116;2023-03-13T13:03:37;92133.88;;;22.23;40.87
21742;BME280;11033;47.490;11.116;2023-03-13T13:06:10;92138.94;;;22.48;41.93
21742;BME280;11033;47.490;11.116;2023-03-13T13:08:40;92138.31;;;22.32;38.15
21742;BME280;11033;47.490;11.116;2023-03-13T13:16:49;92131.19;;;23.78;39.87
21742;BME280;11033;47.490;11.116;2023-03-13T13:24:51;92115.41;;;25.00;39.25
21742;BME280;11033;47.490;11.116;2023-03-13T13:32:53;92101.53;;;25.96;36.39
21742;BME280;11033;47.490;11.116;2023-03-13T13:35:34;92104.19;;;25.87;36.41
21742;BME280;11033;47.490;11.116;2023-03-13T13:43:49;92090.13;;;26.30;34.90
21742;BME280;11033;47.490;11.116;2023-03-13T13:46:34;92086.38;;;26.09;35.75
21742;BME280;11033;47.490;11.116;2023-03-13T13:51:36;92080.88;;;26.22;32.86
21742;BME280;11033;47.490;11.116;2023-03-13T14:04:35;92058.81;;;26.69;35.33
21742;BME280;11033;47.490;11.116;2023-03-13T14:07:03;92061.25;;;27.48;32.87
21742;BME280;11033;47.490;11.116;2023-03-13T14:12:23;92046.78;;;27.27;32.94
21742;BME280;11033;47.490;11.116;2023-03-13T14:15:10;92047.81;;;25.86;34.25
21742;BME280;11033;47.490;11.116;2023-03-13T14:17:38;92045.41;;;26.64;33.38
21742;BME280;11033;47.490;11.116;2023-03-13T14:20:14;92052.19;;;27.35;32.64
21742;BME280;11033;47.490;11.116;2023-03-13T14:22:44;92045.81;;;27.40;32.95
21742;BME280;11033;47.490;11.116;2023-03-13T14:25:10;92044.19;;;27.73;33.13
21742;BME280;11033;47.490;11.116;2023-03-13T14:27:42;92040.25;;;27.36;31.13
21742;BME280;11033;47.490;11.116;2023-03-13T14:30:08;92037.03;;;27.60;32.04
21742;BME280;11033;47.490;11.116;2023-03-13T14:32:34;92039.59;;;26.88;32.16
21742;BME280;11033;47.490;11.116;2023-03-13T14:34:59;92025.97;;;28.00;32.33